Nearby METAR Reports

 

TNCA - Queen Beatrix, Lesser Antilles
Distance from station: 0 0km
Updated: 25/09/2017 16:00
Few Clouds
Few Clouds
 Wind from E
Wind: E 41 km/h
Temperature: 33°C
Heat Index: 40°C
Dew Point: 25°C
Humidity: 63%
Barometer: 1008 hPa
Clouds: Few Clouds
Visibility: 10 km
Cloud details: Few Clouds 671 m
2017/09/25 20:00 TNCA 252000Z 09022KT 9999 FEW022 33/25 Q1008 A2977 NOSIG
SVJC - Paraguana/Josefa, Venezuela
Distance from station: S 83km
Updated: 20/09/2017 14:00
NOT Current
Mostly Cloudy
Mostly Cloudy
 Wind from NNW
Wind: NNW 28 km/h
Clouds: Mostly Cloudy
Visibility: 10 km
Cloud details: Mostly Cloudy 1829 m
2017/09/20 18:00 SVJC 201800Z 33015KT 9999 BKN060CB XX/XX Q1008
 
TNCC - Hato Air Curacao, Lesser Antilles
Distance from station: ESE 117km
Updated: 25/09/2017 16:00
Few Clouds
Few Clouds
 Wind from E
Wind: E 30 km/h
Temperature: 31°C
Heat Index: 37°C
Dew Point: 24°C
Humidity: 66%
Barometer: 1010 hPa
Clouds: Few Clouds
Visibility: 10 km
Cloud details: Few Clouds 762 m
2017/09/25 20:00 TNCC 252000Z 10016KT 9999 FEW025 31/24 Q1010 NOSIG
SVCR - Coro/Jose Leonar, Venezuela
Distance from station: SSE 126km
Updated: 20/09/2017 14:00
NOT Current
Clear
Clear
 Wind from E
Wind: E 19 km/h
Summary: Clear
Visibility: greater than 10 km
2017/09/20 18:00 SVCR 201800Z 08010KT CAVOK XX/XX Q1009
 
TNCB - Bonaire/Flamingo, Lesser Antilles
Distance from station: ESE 191km
Updated: 25/09/2017 15:55
Few Clouds
Few Clouds
 Wind from ESE
Wind: ESE 30 km/h
Temperature: 31°C
Heat Index: 36°C
Dew Point: 23°C
Humidity: 62%
Barometer: 1010 hPa
Clouds: Few Clouds
Visibility: 10 km
Cloud details: Few Clouds 671 m
2017/09/25 19:55 TNCB 251955Z 11016KT 080V150 9999 FEW022 31/23 Q1010
SVMC - Maracaibo/La Chi, Venezuela
Distance from station: SW 285km
Updated: 25/09/2017 09:07
NOT Current

 
2017/09/25 13:07 SVMC 251307Z METAR SVMC 251300Z 18001KT 9999 SCT013 28/25 Q1010